sensor_id;sensor_type;location;lat;lon;timestamp;temperature;humidity
31687;DHT22;18285;51.330;4.946;2023-06-24T00:02:05;24.10;54.90
31687;DHT22;18285;51.330;4.946;2023-06-24T00:26:16;24.10;54.30
31687;DHT22;18285;51.330;4.946;2023-06-24T00:50:27;24.10;53.70
31687;DHT22;18285;51.330;4.946;2023-06-24T01:14:38;24.10;53.40
31687;DHT22;18285;51.330;4.946;2023-06-24T01:38:52;24.10;53.20
31687;DHT22;18285;51.330;4.946;2023-06-24T02:03:06;24.10;53.10
31687;DHT22;18285;51.330;4.946;2023-06-24T02:27:18;24.20;53.10
31687;DHT22;18285;51.330;4.946;2023-06-24T02:51:29;24.20;53.00
31687;DHT22;18285;51.330;4.946;2023-06-24T03:15:40;24.20;52.90
31687;DHT22;18285;51.330;4.946;2023-06-24T03:39:51;24.10;52.70
31687;DHT22;18285;51.330;4.946;2023-06-24T04:04:02;24.20;52.60
31687;DHT22;18285;51.330;4.946;2023-06-24T04:28:13;24.20;52.30
31687;DHT22;18285;51.330;4.946;2023-06-24T04:52:23;24.20;52.40
31687;DHT22;18285;51.330;4.946;2023-06-24T05:16:34;24.20;52.30
31687;DHT22;18285;51.330;4.946;2023-06-24T05:40:45;24.30;52.40
31687;DHT22;18285;51.330;4.946;2023-06-24T06:04:56;24.30;52.20
31687;DHT22;18285;51.330;4.946;2023-06-24T06:29:06;24.20;52.20
31687;DHT22;18285;51.330;4.946;2023-06-24T06:53:17;24.30;52.10
31687;DHT22;18285;51.330;4.946;2023-06-24T07:17:28;24.30;52.30
31687;DHT22;18285;51.330;4.946;2023-06-24T07:41:38;24.40;52.00
31687;DHT22;18285;51.330;4.946;2023-06-24T08:05:49;24.30;52.20
31687;DHT22;18285;51.330;4.946;2023-06-24T08:30:00;24.30;52.10
31687;DHT22;18285;51.330;4.946;2023-06-24T08:54:11;24.40;52.30
31687;DHT22;18285;51.330;4.946;2023-06-24T09:18:31;24.30;52.10
31687;DHT22;18285;51.330;4.946;2023-06-24T09:42:56;24.40;52.50
31687;DHT22;18285;51.330;4.946;2023-06-24T10:07:07;24.40;52.50
31687;DHT22;18285;51.330;4.946;2023-06-24T10:55:58;24.40;52.40
31687;DHT22;18285;51.330;4.946;2023-06-24T11:20:13;24.30;52.40
31687;DHT22;18285;51.330;4.946;2023-06-24T11:44:24;24.30;52.30
31687;DHT22;18285;51.330;4.946;2023-06-24T12:08:34;24.30;52.30
31687;DHT22;18285;51.330;4.946;2023-06-24T12:32:45;24.30;51.70
31687;DHT22;18285;51.330;4.946;2023-06-24T12:56:56;24.30;51.70
31687;DHT22;18285;51.330;4.946;2023-06-24T13:21:07;24.30;51.40
31687;DHT22;18285;51.330;4.946;2023-06-24T13:45:18;24.30;51.40
31687;DHT22;18285;51.330;4.946;2023-06-24T14:09:29;24.30;51.60
31687;DHT22;18285;51.330;4.946;2023-06-24T14:33:40;24.40;51.60
31687;DHT22;18285;51.330;4.946;2023-06-24T14:57:50;24.30;51.60
31687;DHT22;18285;51.330;4.946;2023-06-24T15:22:01;24.30;51.60
31687;DHT22;18285;51.330;4.946;2023-06-24T15:46:12;24.30;51.50
31687;DHT22;18285;51.330;4.946;2023-06-24T16:10:23;24.30;51.50
31687;DHT22;18285;51.330;4.946;2023-06-24T16:34:33;24.30;51.50
31687;DHT22;18285;51.330;4.946;2023-06-24T16:58:44;24.30;51.50
31687;DHT22;18285;51.330;4.946;2023-06-24T17:22:55;24.30;51.50
31687;DHT22;18285;51.330;4.946;2023-06-24T17:47:07;24.40;51.50
31687;DHT22;18285;51.330;4.946;2023-06-24T18:11:18;24.30;51.50
31687;DHT22;18285;51.330;4.946;2023-06-24T18:35:29;24.40;51.50
31687;DHT22;18285;51.330;4.946;2023-06-24T18:59:39;24.40;51.50
31687;DHT22;18285;51.330;4.946;2023-06-24T19:23:50;24.30;51.50
31687;DHT22;18285;51.330;4.946;2023-06-24T19:48:01;24.30;51.40
31687;DHT22;18285;51.330;4.946;2023-06-24T20:12:11;24.30;51.90
31687;DHT22;18285;51.330;4.946;2023-06-24T20:36:22;24.30;51.40
31687;DHT22;18285;51.330;4.946;2023-06-24T21:00:32;24.30;51.20
31687;DHT22;18285;51.330;4.946;2023-06-24T21:24:43;24.30;51.50
31687;DHT22;18285;51.330;4.946;2023-06-24T21:48:54;24.40;50.90
31687;DHT22;18285;51.330;4.946;2023-06-24T22:13:04;24.40;51.30
31687;DHT22;18285;51.330;4.946;2023-06-24T22:37:15;24.40;51.00
31687;DHT22;18285;51.330;4.946;2023-06-24T23:01:26;24.30;50.70
31687;DHT22;18285;51.330;4.946;2023-06-24T23:25:36;24.30;51.10
31687;DHT22;18285;51.330;4.946;2023-06-24T23:49:50;24.30;50.20
